Time;durP1;ratioP1;P1;durP2;ratioP2;P2;SDS_P1;SDS_P2;PMS_P1;PMS_P2;Temp;Humidity;BMP_temperature;BMP_pressure;BME280_temperature;BME280_humidity;BME280_pressure;Samples;Min_cycle;Max_cycle;Signal;HPM_P1;HPM_P2
2023/06/01 00:02:31;;;;;;;14.70;4.22;;;23.50;50.80;;;;;;6153130;28;80617;-63
2023/06/01 00:05:31;;;;;;;5.82;3.50;;;23.50;50.80;;;;;;6152980;28;80363;-63
2023/06/01 00:08:32;;;;;;;6.25;3.97;;;23.40;50.80;;;;;;6152993;28;80820;-62
2023/06/01 00:11:32;;;;;;;7.00;3.80;;;23.50;50.80;;;;;;6153891;28;83825;-62
2023/06/01 00:14:33;;;;;;;5.75;3.67;;;23.50;50.80;;;;;;6154565;28;81238;-57
2023/06/01 00:17:34;;;;;;;5.28;3.47;;;23.50;50.90;;;;;;6153611;28;80220;-56
2023/06/01 00:20:35;;;;;;;9.18;3.72;;;23.50;50.80;;;;;;6151728;28;80310;-56
2023/06/01 00:23:35;;;;;;;6.60;3.65;;;23.50;50.90;;;;;;6152828;28;82441;-54
2023/06/01 00:26:36;;;;;;;5.53;3.70;;;23.50;50.80;;;;;;6153619;28;80277;-57
2023/06/01 00:29:36;;;;;;;5.80;3.90;;;23.50;50.90;;;;;;6151182;28;83249;-57
2023/06/01 00:32:36;;;;;;;7.93;3.75;;;23.50;50.90;;;;;;6151518;28;80552;-56
2023/06/01 00:35:37;;;;;;;6.70;3.70;;;23.50;50.90;;;;;;6153397;28;80613;-56
2023/06/01 00:38:37;;;;;;;6.40;3.35;;;23.50;50.90;;;;;;6152879;28;80525;-56
2023/06/01 00:41:38;;;;;;;5.43;3.38;;;23.50;50.90;;;;;;6153611;28;81307;-56
2023/06/01 00:44:38;;;;;;;6.80;4.10;;;23.50;50.90;;;;;;6149483;28;80593;-56
2023/06/01 00:47:39;;;;;;;8.40;3.97;;;23.50;50.90;;;;;;6150640;28;83253;-57
2023/06/01 00:50:40;;;;;;;4.13;3.35;;;23.50;50.80;;;;;;6150919;28;83399;-57
2023/06/01 00:53:41;;;;;;;5.95;3.78;;;23.50;50.80;;;;;;6150339;28;81862;-53
2023/06/01 00:56:41;;;;;;;4.43;3.20;;;23.50;50.90;;;;;;6153107;28;80259;-56
2023/06/01 00:59:42;;;;;;;9.65;3.80;;;23.50;50.80;;;;;;6152535;28;80792;-56
2023/06/01 01:02:44;;;;;;;6.47;3.17;;;23.50;50.80;;;;;;6152199;28;86237;-56
2023/06/01 01:05:44;;;;;;;4.25;2.95;;;23.50;50.90;;;;;;6151383;28;81095;-56
2023/06/01 01:08:45;;;;;;;7.50;3.65;;;23.40;50.80;;;;;;6150243;28;80445;-56
2023/06/01 01:11:46;;;;;;;5.97;3.53;;;23.50;50.90;;;;;;6164205;28;82345;-56
2023/06/01 01:14:46;;;;;;;4.75;3.03;;;23.40;50.90;;;;;;6157624;28;83479;-52
2023/06/01 01:17:47;;;;;;;6.32;3.55;;;23.40;50.90;;;;;;6156688;28;81514;-55
2023/06/01 01:20:50;;;;;;;4.07;3.00;;;23.40;50.80;;;;;;6164786;28;82552;-55
2023/06/01 01:23:51;;;;;;;5.00;3.45;;;23.40;50.80;;;;;;6165403;28;83115;-56
2023/06/01 01:26:51;;;;;;;6.03;3.22;;;23.40;50.80;;;;;;6154280;28;81622;-57
2023/06/01 01:29:52;;;;;;;6.22;3.40;;;23.40;50.80;;;;;;6153323;28;81873;-62
2023/06/01 01:32:53;;;;;;;6.72;3.03;;;23.40;50.90;;;;;;6151210;28;81759;-60
2023/06/01 01:35:54;;;;;;;7.60;3.45;;;23.40;50.80;;;;;;6152339;28;80479;-62
2023/06/01 01:38:54;;;;;;;8.57;3.25;;;23.40;50.80;;;;;;6158528;28;83940;-61
2023/06/01 01:41:55;;;;;;;5.50;3.60;;;23.40;50.90;;;;;;6163591;28;81643;-62
2023/06/01 01:44:55;;;;;;;6.03;3.50;;;23.40;50.90;;;;;;6145950;28;83367;-61
2023/06/01 01:47:56;;;;;;;5.50;3.90;;;23.50;50.90;;;;;;6148443;28;80486;-71
2023/06/01 01:50:56;;;;;;;5.05;3.22;;;23.40;50.90;;;;;;6148986;28;80721;-71
2023/06/01 01:53:57;;;;;;;8.32;2.97;;;23.40;50.90;;;;;;6154395;28;81541;-70
2023/06/01 01:56:58;;;;;;;4.30;2.90;;;23.40;50.90;;;;;;6156930;28;83459;-70
2023/06/01 01:59:58;;;;;;;6.40;3.55;;;23.40;50.90;;;;;;6154852;28;83425;-72
2023/06/01 02:02:59;;;;;;;4.25;3.08;;;23.40;50.90;;;;;;6150054;28;82221;-71
2023/06/01 02:06:00;;;;;;;6.88;2.95;;;23.30;50.80;;;;;;6151904;28;83517;-72
2023/06/01 02:09:00;;;;;;;5.53;3.42;;;23.30;50.90;;;;;;6151830;28;83558;-72
2023/06/01 02:12:02;;;;;;;5.35;3.85;;;23.30;50.90;;;;;;6156281;28;83370;-70
2023/06/01 02:15:04;;;;;;;9.55;3.42;;;23.40;50.90;;;;;;6150005;28;81717;-69
2023/06/01 02:18:07;;;;;;;4.47;3.10;;;23.40;50.90;;;;;;6159637;28;83356;-68
2023/06/01 02:21:08;;;;;;;5.00;3.40;;;23.40;51.00;;;;;;6150672;28;81595;-67
2023/06/01 02:24:09;;;;;;;4.43;3.00;;;23.30;50.90;;;;;;6150384;28;83070;-69
2023/06/01 02:27:11;;;;;;;7.82;4.30;;;23.40;50.90;;;;;;6150532;28;82308;-71
2023/06/01 02:30:12;;;;;;;7.20;3.55;;;23.40;51.00;;;;;;6152308;28;82803;-69
2023/06/01 02:33:12;;;;;;;6.53;3.42;;;23.40;51.10;;;;;;6139298;28;82167;-68
2023/06/01 02:36:16;;;;;;;5.80;3.67;;;23.30;50.90;;;;;;6152656;28;81793;-74
2023/06/01 02:39:17;;;;;;;9.60;3.30;;;23.40;50.90;;;;;;6165396;28;83988;-68
2023/06/01 02:42:18;;;;;;;6.55;3.53;;;23.40;50.90;;;;;;6151263;28;80569;-62
2023/06/01 02:45:19;;;;;;;5.90;3.35;;;23.40;50.90;;;;;;6142395;28;83444;-61
2023/06/01 02:48:21;;;;;;;4.78;3.40;;;23.40;50.80;;;;;;6156572;28;81639;-61
2023/06/01 02:51:21;;;;;;;5.07;2.85;;;23.40;50.90;;;;;;6157405;28;82229;-62
2023/06/01 02:54:27;;;;;;;4.03;2.97;;;23.40;50.90;;;;;;6159280;28;80422;-62
2023/06/01 02:57:28;;;;;;;6.05;3.50;;;23.30;50.90;;;;;;6151666;28;81377;-61
2023/06/01 03:00:32;;;;;;;5.15;3.05;;;23.30;50.90;;;;;;6152887;28;83979;-62
2023/06/01 03:03:32;;;;;;;6.50;2.95;;;23.30;50.90;;;;;;6156577;28;82289;-62
2023/06/01 03:06:37;;;;;;;5.85;3.25;;;23.30;50.90;;;;;;6168234;28;81779;-59
2023/06/01 03:09:47;;;;;;;6.18;3.47;;;23.40;51.00;;;;;;6154244;28;80348;-62
2023/06/01 03:13:07;;;;;;;5.43;3.33;;;23.40;50.90;;;;;;6141003;28;81337;-62
2023/06/01 03:16:08;;;;;;;5.30;3.22;;;23.40;51.00;;;;;;6153388;28;82258;-58
2023/06/01 03:19:09;;;;;;;4.85;3.17;;;23.30;50.90;;;;;;6153584;28;81260;-67
2023/06/01 03:22:10;;;;;;;6.55;3.22;;;23.30;50.90;;;;;;6152262;28;83795;-66
2023/06/01 03:25:12;;;;;;;4.78;3.10;;;23.30;50.90;;;;;;6152848;28;83257;-65
2023/06/01 03:28:12;;;;;;;4.78;3.28;;;23.30;50.80;;;;;;6152794;28;83681;-69
2023/06/01 03:31:15;;;;;;;4.43;3.10;;;23.30;50.80;;;;;;6154153;28;81109;-73
2023/06/01 03:34:17;;;;;;;5.55;3.00;;;23.30;50.80;;;;;;6167707;28;80761;-64
2023/06/01 03:37:17;;;;;;;5.72;3.25;;;23.30;50.80;;;;;;6152566;28;83423;-59
2023/06/01 03:40:18;;;;;;;6.20;3.47;;;23.30;50.80;;;;;;6152690;28;81247;-58
2023/06/01 03:43:19;;;;;;;3.75;2.75;;;23.30;50.90;;;;;;6162955;28;82648;-59
2023/06/01 03:46:19;;;;;;;4.68;3.65;;;23.30;51.40;;;;;;6156490;28;81579;-59
2023/06/01 03:49:20;;;;;;;5.97;3.10;;;23.30;50.90;;;;;;6162001;28;81725;-59
2023/06/01 03:52:21;;;;;;;5.22;3.20;;;23.30;50.80;;;;;;6150262;28;82514;-59
2023/06/01 03:55:22;;;;;;;5.32;3.63;;;23.30;50.70;;;;;;6150633;28;83351;-63
2023/06/01 03:58:42;;;;;;;6.43;3.17;;;23.30;50.80;;;;;;6150348;28;83465;-66
2023/06/01 04:01:45;;;;;;;6.88;3.20;;;23.30;50.80;;;;;;6165212;28;80462;-68
2023/06/01 04:04:46;;;;;;;7.25;3.67;;;23.40;51.30;;;;;;6147651;28;83141;-73
2023/06/01 04:07:47;;;;;;;5.90;3.47;;;23.40;51.60;;;;;;6151861;28;80488;-63
2023/06/01 04:10:48;;;;;;;6.97;3.53;;;23.40;51.80;;;;;;6154757;28;81802;-64
2023/06/01 04:13:48;;;;;;;6.18;3.40;;;23.40;51.90;;;;;;6154099;28;81680;-60
2023/06/01 04:16:49;;;;;;;6.07;3.25;;;23.40;52.00;;;;;;6151762;28;83511;-64
2023/06/01 04:19:49;;;;;;;9.52;3.97;;;23.40;52.00;;;;;;6151373;28;81457;-66
2023/06/01 04:22:50;;;;;;;8.65;3.58;;;23.40;52.50;;;;;;6152444;28;80198;-64
2023/06/01 04:25:51;;;;;;;8.18;3.63;;;23.40;52.30;;;;;;6150091;28;81520;-66
2023/06/01 04:28:56;;;;;;;8.75;3.78;;;23.40;53.40;;;;;;6151617;28;83066;-63
2023/06/01 04:31:57;;;;;;;9.07;3.53;;;23.40;53.40;;;;;;6160163;28;83019;-64
2023/06/01 04:34:59;;;;;;;8.52;3.35;;;23.40;53.30;;;;;;6147144;28;84012;-67
2023/06/01 04:38:02;;;;;;;9.20;3.83;;;23.40;53.60;;;;;;6148593;28;83437;-66
2023/06/01 04:41:03;;;;;;;5.35;3.30;;;23.40;53.50;;;;;;6149820;28;83621;-67
2023/06/01 04:44:07;;;;;;;9.68;3.28;;;23.40;53.30;;;;;;6161359;28;82068;-67
2023/06/01 04:47:08;;;;;;;7.20;3.53;;;23.40;53.30;;;;;;6158878;28;83540;-67
2023/06/01 04:50:09;;;;;;;9.70;3.42;;;23.40;53.10;;;;;;6166542;28;83397;-67
2023/06/01 04:53:10;;;;;;;8.70;3.88;;;23.40;52.90;;;;;;6153768;28;81902;-67
2023/06/01 04:56:12;;;;;;;15.02;3.70;;;23.40;52.70;;;;;;6163800;28;82884;-67
2023/06/01 04:59:12;;;;;;;9.00;3.58;;;23.50;52.50;;;;;;6149658;28;80718;-69
2023/06/01 05:02:13;;;;;;;10.40;3.70;;;23.50;52.30;;;;;;6153733;28;82885;-68
2023/06/01 05:05:14;;;;;;;16.27;4.40;;;23.50;52.10;;;;;;6164607;28;83739;-65
2023/06/01 05:08:15;;;;;;;7.45;4.07;;;23.40;51.90;;;;;;6144064;28;83601;-78
2023/06/01 05:11:16;;;;;;;9.18;4.13;;;23.50;52.10;;;;;;6154915;28;81149;-78
2023/06/01 05:14:16;;;;;;;11.35;4.10;;;23.40;51.50;;;;;;6149002;28;81181;-77
2023/06/01 05:17:17;;;;;;;14.55;4.88;;;23.40;51.40;;;;;;6145890;28;82860;-77
2023/06/01 05:20:17;;;;;;;7.40;4.25;;;23.30;51.10;;;;;;6153780;28;87023;-61
2023/06/01 05:23:23;;;;;;;11.90;4.68;;;23.30;51.00;;;;;;6150706;28;82347;-70
2023/06/01 05:26:25;;;;;;;14.85;4.00;;;23.30;51.10;;;;;;6156945;28;82351;-56
2023/06/01 05:29:26;;;;;;;9.43;4.75;;;23.40;51.00;;;;;;6148708;28;82840;-58
2023/06/01 05:32:26;;;;;;;9.35;4.38;;;23.40;50.80;;;;;;6153910;28;80981;-58
2023/06/01 05:35:30;;;;;;;7.35;4.10;;;23.30;50.70;;;;;;6153346;28;81566;-60
2023/06/01 05:38:31;;;;;;;10.52;4.10;;;23.30;50.60;;;;;;6149178;28;83484;-57
2023/06/01 05:41:31;;;;;;;7.00;3.90;;;23.30;50.70;;;;;;6157797;28;83607;-57
2023/06/01 05:44:32;;;;;;;9.43;4.00;;;23.30;50.50;;;;;;6154015;28;83052;-58
2023/06/01 05:47:33;;;;;;;8.57;4.45;;;23.30;50.30;;;;;;6153115;28;83833;-57
2023/06/01 05:50:34;;;;;;;8.15;4.30;;;23.40;50.30;;;;;;6152566;28;82858;-55
2023/06/01 05:53:34;;;;;;;6.38;3.72;;;23.40;50.40;;;;;;6150860;28;83494;-55
2023/06/01 05:56:42;;;;;;;6.60;3.80;;;23.40;50.30;;;;;;6154002;28;82984;-55
2023/06/01 05:59:45;;;;;;;9.77;4.40;;;23.40;49.90;;;;;;6152009;28;82817;-58
2023/06/01 06:02:46;;;;;;;7.13;3.50;;;23.40;49.90;;;;;;6151769;28;83352;-56
2023/06/01 06:05:47;;;;;;;8.82;3.90;;;23.40;49.80;;;;;;6152532;28;80496;-58
2023/06/01 06:08:47;;;;;;;8.13;4.07;;;23.40;49.60;;;;;;6148112;28;81550;-58
2023/06/01 06:11:48;;;;;;;8.60;4.45;;;23.50;49.60;;;;;;6153013;28;80718;-58
2023/06/01 06:14:51;;;;;;;13.80;4.88;;;23.40;49.00;;;;;;6152649;28;81205;-55
2023/06/01 06:17:51;;;;;;;9.45;4.43;;;23.40;49.30;;;;;;6152932;28;83026;-57
2023/06/01 06:20:52;;;;;;;7.72;3.63;;;23.40;49.20;;;;;;6154249;28;80970;-56
2023/06/01 06:23:58;;;;;;;6.10;3.35;;;23.40;49.20;;;;;;6157231;28;80439;-49
2023/06/01 06:26:59;;;;;;;7.50;4.05;;;23.50;49.00;;;;;;6154937;28;80555;-58
2023/06/01 06:29:59;;;;;;;7.80;3.95;;;23.40;49.00;;;;;;6156070;28;84359;-53
2023/06/01 06:33:00;;;;;;;8.80;3.80;;;23.40;49.10;;;;;;6155839;28;80439;-56
2023/06/01 06:36:00;;;;;;;12.20;5.63;;;23.50;49.00;;;;;;6153069;28;81698;-54
2023/06/01 06:39:01;;;;;;;9.23;5.93;;;23.40;48.70;;;;;;6153931;28;84427;-55
2023/06/01 06:42:02;;;;;;;9.43;5.55;;;23.40;48.60;;;;;;6155775;28;80863;-58
2023/06/01 06:45:04;;;;;;;9.15;5.10;;;23.40;48.50;;;;;;6154909;28;82789;-57
2023/06/01 06:48:05;;;;;;;11.48;5.15;;;23.40;48.70;;;;;;6155897;28;80204;-58
2023/06/01 06:51:05;;;;;;;15.13;4.82;;;23.40;48.20;;;;;;6153853;28;82188;-56
2023/06/01 06:54:06;;;;;;;8.32;4.65;;;23.30;48.50;;;;;;6155789;28;83343;-56
2023/06/01 06:57:07;;;;;;;8.65;4.35;;;23.30;48.50;;;;;;6154401;28;80937;-55
2023/06/01 07:00:08;;;;;;;10.10;4.75;;;23.40;48.60;;;;;;6154931;28;80477;-59
2023/06/01 07:03:09;;;;;;;7.20;3.92;;;23.40;48.60;;;;;;6152167;28;82214;-59
2023/06/01 07:06:09;;;;;;;11.98;3.67;;;23.40;48.50;;;;;;6151218;28;81248;-58
2023/06/01 07:09:10;;;;;;;9.65;4.15;;;23.50;48.60;;;;;;6151557;28;81485;-58
2023/06/01 07:12:10;;;;;;;7.10;3.80;;;23.50;48.60;;;;;;6151945;28;81204;-58
2023/06/01 07:15:11;;;;;;;7.13;4.03;;;23.50;48.50;;;;;;6152391;28;80567;-58
2023/06/01 07:18:12;;;;;;;8.38;3.83;;;23.50;48.70;;;;;;6151320;28;80420;-59
2023/06/01 07:21:12;;;;;;;11.40;4.15;;;23.50;48.80;;;;;;6151983;28;82640;-59
2023/06/01 07:24:13;;;;;;;6.80;3.70;;;23.50;48.60;;;;;;6151865;28;80655;-58
2023/06/01 07:27:14;;;;;;;6.65;4.03;;;23.50;48.70;;;;;;6154786;28;80614;-58
2023/06/01 07:30:14;;;;;;;5.65;3.53;;;23.60;48.80;;;;;;6152957;28;81048;-58
2023/06/01 07:33:16;;;;;;;8.95;3.70;;;23.60;48.80;;;;;;6154225;28;80568;-59
2023/06/01 07:36:16;;;;;;;8.35;4.00;;;23.60;48.80;;;;;;6152520;28;80579;-59
2023/06/01 07:39:17;;;;;;;12.10;3.72;;;23.60;48.70;;;;;;6153115;28;80464;-56
2023/06/01 07:42:18;;;;;;;6.93;3.95;;;23.20;48.90;;;;;;6153480;28;80910;-56
2023/06/01 07:45:18;;;;;;;8.93;4.43;;;23.10;48.80;;;;;;6146686;28;81259;-58
2023/06/01 07:48:19;;;;;;;9.35;5.05;;;23.20;49.30;;;;;;6148948;28;81330;-56
2023/06/01 07:51:20;;;;;;;9.98;4.03;;;23.10;49.20;;;;;;6153079;28;80580;-58
2023/06/01 07:54:21;;;;;;;11.30;4.45;;;23.10;48.80;;;;;;6155935;28;82169;-58
2023/06/01 07:57:21;;;;;;;10.73;4.30;;;22.90;49.00;;;;;;6154973;28;80483;-57
2023/06/01 08:00:22;;;;;;;8.52;4.25;;;22.90;49.00;;;;;;6151935;28;81019;-55
2023/06/01 08:03:25;;;;;;;12.23;6.40;;;22.90;48.80;;;;;;6150079;28;87799;-57
2023/06/01 08:06:26;;;;;;;19.48;4.78;;;22.90;47.70;;;;;;6154301;28;81376;-58
2023/06/01 08:09:27;;;;;;;9.18;3.75;;;22.80;47.70;;;;;;6153375;28;80693;-57
2023/06/01 08:12:27;;;;;;;9.57;3.90;;;22.90;47.70;;;;;;6155314;28;80610;-56
2023/06/01 08:15:28;;;;;;;23.23;4.57;;;23.00;47.80;;;;;;6157281;28;80407;-57
2023/06/01 08:18:28;;;;;;;19.85;6.43;;;23.20;47.90;;;;;;6157188;28;82202;-58
2023/06/01 08:21:29;;;;;;;10.48;5.53;;;23.20;46.80;;;;;;6153468;28;81438;-57
2023/06/01 08:24:32;;;;;;;9.02;4.13;;;23.20;44.90;;;;;;6155520;28;80710;-57
2023/06/01 08:27:32;;;;;;;8.98;4.05;;;23.10;44.00;;;;;;6155004;28;81525;-56
2023/06/01 08:30:33;;;;;;;28.73;6.22;;;23.30;44.60;;;;;;6154833;28;80817;-57
2023/06/01 08:33:33;;;;;;;14.55;4.05;;;23.40;45.00;;;;;;6152220;28;80949;-54
2023/06/01 08:36:34;;;;;;;10.52;4.30;;;23.40;45.40;;;;;;6155529;28;80638;-56
2023/06/01 08:39:34;;;;;;;12.88;4.63;;;23.40;45.20;;;;;;6153998;28;80998;-57
2023/06/01 08:42:35;;;;;;;12.45;3.55;;;23.40;45.20;;;;;;6154796;28;80500;-54
2023/06/01 08:45:36;;;;;;;12.30;3.70;;;23.50;45.30;;;;;;6146660;28;81668;-57
2023/06/01 08:48:36;;;;;;;10.20;3.22;;;23.50;44.90;;;;;;6152251;28;80373;-54
2023/06/01 08:51:37;;;;;;;12.18;3.40;;;23.60;44.50;;;;;;6153928;28;80339;-61
2023/06/01 08:54:38;;;;;;;8.88;3.25;;;23.70;45.80;;;;;;6153099;28;81739;-61
2023/06/01 08:57:39;;;;;;;9.13;3.92;;;23.60;43.30;;;;;;6152000;28;82897;-60
2023/06/01 09:00:40;;;;;;;7.45;2.92;;;23.70;44.60;;;;;;6146344;28;80880;-61
2023/06/01 09:03:41;;;;;;;5.28;3.20;;;23.70;43.70;;;;;;6146316;28;81125;-62
2023/06/01 09:06:41;;;;;;;9.20;3.40;;;23.80;44.40;;;;;;6154120;28;80119;-62
2023/06/01 09:09:42;;;;;;;8.02;2.90;;;23.80;44.00;;;;;;6162766;28;80453;-74
2023/06/01 09:12:44;;;;;;;7.60;3.30;;;23.80;43.50;;;;;;6154883;28;81319;-74
2023/06/01 09:15:45;;;;;;;11.55;3.42;;;23.90;43.40;;;;;;6151092;28;81734;-73
2023/06/01 09:18:45;;;;;;;11.10;2.72;;;23.80;41.90;;;;;;6153356;28;80498;-70
2023/06/01 09:21:46;;;;;;;8.60;3.95;;;23.80;41.70;;;;;;6163109;28;80584;-74
2023/06/01 09:24:47;;;;;;;7.43;3.42;;;23.90;41.90;;;;;;6161770;28;80624;-73
2023/06/01 09:27:47;;;;;;;7.47;3.15;;;24.00;42.30;;;;;;6155615;28;80763;-52
2023/06/01 09:30:48;;;;;;;18.58;5.05;;;23.90;42.10;;;;;;6150942;28;81439;-54
2023/06/01 09:33:48;;;;;;;7.45;3.20;;;23.90;42.60;;;;;;6153993;28;81217;-55
2023/06/01 09:36:49;;;;;;;5.25;3.08;;;24.00;41.90;;;;;;6153336;28;82701;-58
2023/06/01 09:39:49;;;;;;;6.00;2.92;;;24.00;41.60;;;;;;6153550;28;81013;-56
2023/06/01 09:42:50;;;;;;;4.90;2.83;;;24.10;41.80;;;;;;6150946;28;81432;-54
2023/06/01 09:45:51;;;;;;;12.20;3.20;;;24.20;41.70;;;;;;6135264;28;81527;-63
2023/06/01 09:48:51;;;;;;;7.40;2.78;;;24.20;41.70;;;;;;6152606;28;81182;-63
2023/06/01 09:51:52;;;;;;;5.45;2.60;;;24.30;41.70;;;;;;6153169;28;80880;-62
2023/06/01 09:54:58;;;;;;;9.32;2.95;;;24.30;41.20;;;;;;6157277;28;80893;-62
2023/06/01 09:57:58;;;;;;;5.53;2.97;;;24.30;42.20;;;;;;6158931;28;81376;-61
2023/06/01 10:00:59;;;;;;;5.15;2.80;;;24.40;42.10;;;;;;6154675;28;80481;-62
2023/06/01 10:04:00;;;;;;;5.40;2.67;;;24.40;42.00;;;;;;6156585;28;80462;-63
2023/06/01 10:07:00;;;;;;;4.95;2.90;;;24.40;40.40;;;;;;6156871;28;80920;-62
2023/06/01 10:10:03;;;;;;;5.18;2.80;;;24.30;40.20;;;;;;6156749;28;80499;-62
2023/06/01 10:13:04;;;;;;;6.22;2.42;;;24.30;40.50;;;;;;6155468;28;80512;-62
2023/06/01 10:16:04;;;;;;;4.28;2.63;;;24.40;40.60;;;;;;6154861;28;81465;-61
2023/06/01 10:19:05;;;;;;;9.52;3.03;;;24.50;41.00;;;;;;6155750;28;80434;-61
2023/06/01 10:22:06;;;;;;;9.75;3.33;;;24.60;40.10;;;;;;6157874;28;80631;-60
2023/06/01 10:25:07;;;;;;;11.65;2.78;;;24.60;39.60;;;;;;6156343;28;80455;-64
2023/06/01 10:28:07;;;;;;;9.25;3.17;;;24.60;39.90;;;;;;6150312;28;82814;-60
2023/06/01 10:31:08;;;;;;;5.65;2.50;;;24.70;40.70;;;;;;6154205;28;80821;-64
2023/06/01 10:34:09;;;;;;;7.07;2.58;;;24.60;39.70;;;;;;6156944;28;82064;-64
2023/06/01 10:37:09;;;;;;;5.85;2.67;;;24.60;38.90;;;;;;6153933;28;80246;-62
2023/06/01 10:40:10;;;;;;;5.72;3.22;;;24.60;38.30;;;;;;6153489;28;80371;-75
2023/06/01 10:43:11;;;;;;;7.03;2.45;;;24.70;39.30;;;;;;6153288;28;80684;-68
2023/06/01 10:46:11;;;;;;;6.57;3.30;;;24.80;39.40;;;;;;6155716;28;80804;-69
2023/06/01 10:49:12;;;;;;;6.43;2.53;;;24.80;39.00;;;;;;6155819;28;80440;-72
2023/06/01 10:52:12;;;;;;;8.23;2.72;;;24.80;38.50;;;;;;6162945;28;81044;-73
2023/06/01 10:55:13;;;;;;;8.77;2.70;;;24.90;39.10;;;;;;6158397;28;82469;-74
2023/06/01 10:58:14;;;;;;;3.55;1.95;;;25.00;39.00;;;;;;6154685;28;81887;-56
2023/06/01 11:01:14;;;;;;;5.50;2.78;;;25.00;39.40;;;;;;6151486;28;81591;-57
2023/06/01 11:04:15;;;;;;;4.72;2.65;;;25.00;38.80;;;;;;6153168;28;80807;-58
2023/06/01 11:07:16;;;;;;;7.38;2.65;;;25.10;39.50;;;;;;6154065;28;80653;-48
2023/06/01 11:10:16;;;;;;;13.35;4.43;;;25.10;40.00;;;;;;6150468;28;80979;-50
2023/06/01 11:13:21;;;;;;;12.20;4.07;;;25.00;41.80;;;;;;6151470;28;81023;-51
2023/06/01 11:16:22;;;;;;;8.50;3.43;;;25.00;43.00;;;;;;6151326;28;80750;-63
2023/06/01 11:19:26;;;;;;;9.15;3.38;;;24.90;42.30;;;;;;6155447;28;80711;-66
2023/06/01 11:22:28;;;;;;;5.45;2.97;;;24.80;41.50;;;;;;6156044;28;80654;-66
2023/06/01 11:25:28;;;;;;;22.33;16.23;;;24.70;41.60;;;;;;6157575;28;81265;-64
2023/06/01 11:28:29;;;;;;;26.05;19.38;;;24.70;41.60;;;;;;6150550;28;83633;-65
2023/06/01 11:31:29;;;;;;;21.13;13.70;;;24.80;41.80;;;;;;6153012;28;83064;-64
2023/06/01 11:34:30;;;;;;;8.18;5.05;;;24.80;41.60;;;;;;6153412;28;83193;-55
2023/06/01 11:37:31;;;;;;;9.80;4.07;;;24.90;38.30;;;;;;6154277;28;81989;-56
2023/06/01 11:40:31;;;;;;;9.25;5.28;;;25.00;38.20;;;;;;6150833;28;80693;-53
2023/06/01 11:43:32;;;;;;;13.45;9.35;;;25.00;38.80;;;;;;6154257;28;80495;-58
2023/06/01 11:46:32;;;;;;;11.43;6.05;;;25.00;40.10;;;;;;6149569;28;81817;-58
2023/06/01 11:49:33;;;;;;;13.27;4.35;;;24.80;39.60;;;;;;6154813;28;80758;-58
2023/06/01 11:52:34;;;;;;;6.78;3.55;;;24.80;40.10;;;;;;6155228;28;81739;-55
2023/06/01 11:55:34;;;;;;;7.95;3.38;;;24.70;39.10;;;;;;6150926;28;80992;-55
2023/06/01 11:58:36;;;;;;;7.60;3.50;;;24.70;38.10;;;;;;6155505;28;80761;-56
2023/06/01 12:01:39;;;;;;;12.70;3.67;;;24.80;38.30;;;;;;6154388;28;80216;-56
2023/06/01 12:04:40;;;;;;;13.15;4.82;;;24.90;39.70;;;;;;6153718;28;80349;-53
2023/06/01 12:07:40;;;;;;;9.60;4.68;;;24.90;40.30;;;;;;6153355;28;80897;-57
2023/06/01 12:10:41;;;;;;;10.57;3.63;;;24.90;41.20;;;;;;6147500;28;80436;-60
2023/06/01 12:13:42;;;;;;;7.45;3.33;;;24.80;40.80;;;;;;6150945;28;80599;-55
2023/06/01 12:16:42;;;;;;;7.93;3.45;;;24.80;39.90;;;;;;6153271;28;82510;-56
2023/06/01 12:19:43;;;;;;;11.00;2.80;;;24.80;41.00;;;;;;6155595;28;81557;-52
2023/06/01 12:22:43;;;;;;;6.53;2.72;;;24.80;41.40;;;;;;6153924;28;81738;-54
2023/06/01 12:25:44;;;;;;;10.70;3.13;;;24.90;41.90;;;;;;6151857;28;81468;-55
2023/06/01 12:28:44;;;;;;;6.25;2.17;;;24.80;40.30;;;;;;6154675;28;81894;-54
2023/06/01 12:31:45;;;;;;;7.95;2.60;;;24.80;40.20;;;;;;6154200;28;82305;-64
2023/06/01 12:34:47;;;;;;;8.15;2.58;;;24.80;39.70;;;;;;6155085;28;80600;-63
2023/06/01 12:37:47;;;;;;;10.18;3.88;;;24.80;40.30;;;;;;6155206;28;80469;-60
2023/06/01 12:40:48;;;;;;;8.68;3.17;;;24.90;37.60;;;;;;6143981;28;82331;-62
2023/06/01 12:43:49;;;;;;;2.85;2.40;;;24.90;38.90;;;;;;6152513;28;81195;-63
2023/06/01 12:46:49;;;;;;;5.10;2.53;;;24.90;38.80;;;;;;6152889;28;80507;-62
2023/06/01 12:49:51;;;;;;;7.78;3.00;;;25.00;38.80;;;;;;6154393;28;80538;-61
2023/06/01 12:52:51;;;;;;;5.45;2.88;;;24.90;38.30;;;;;;6149341;28;80451;-62
2023/06/01 12:55:52;;;;;;;5.18;2.78;;;25.00;38.20;;;;;;6146745;28;82634;-63
2023/06/01 12:58:52;;;;;;;6.30;2.95;;;25.00;39.10;;;;;;6151815;28;82292;-64
2023/06/01 13:01:53;;;;;;;3.55;2.67;;;24.90;38.40;;;;;;6149127;28;80461;-64
2023/06/01 13:04:53;;;;;;;6.78;3.30;;;24.90;38.00;;;;;;6149872;28;81252;-63
2023/06/01 13:07:54;;;;;;;6.20;2.40;;;24.90;38.50;;;;;;6152593;28;81097;-63
2023/06/01 13:10:54;;;;;;;7.25;2.75;;;24.80;37.50;;;;;;6152000;28;83880;-63
2023/06/01 13:13:56;;;;;;;5.78;2.75;;;24.90;36.80;;;;;;6154110;28;80816;-64
2023/06/01 13:16:57;;;;;;;4.57;2.83;;;25.00;37.50;;;;;;6146357;28;80692;-63
2023/06/01 13:19:57;;;;;;;4.13;2.92;;;25.00;37.60;;;;;;6154381;28;83774;-64
2023/06/01 13:22:58;;;;;;;4.05;2.30;;;24.90;37.30;;;;;;6150736;28;80342;-66
2023/06/01 13:25:58;;;;;;;5.03;2.95;;;24.90;37.00;;;;;;6150145;28;82902;-65
2023/06/01 13:28:59;;;;;;;7.82;3.13;;;24.80;36.60;;;;;;6152564;28;80803;-64
2023/06/01 13:32:00;;;;;;;3.13;2.55;;;24.80;36.40;;;;;;6153012;28;80343;-64
2023/06/01 13:35:00;;;;;;;4.55;2.63;;;24.80;36.90;;;;;;6154219;28;82452;-64
2023/06/01 13:38:01;;;;;;;3.42;2.38;;;24.80;37.30;;;;;;6151539;28;80953;-64
2023/06/01 13:41:01;;;;;;;12.88;4.43;;;24.90;38.00;;;;;;6154476;28;81085;-64
2023/06/01 13:44:02;;;;;;;8.32;3.40;;;24.80;38.20;;;;;;6137118;28;80370;-66
2023/06/01 13:47:03;;;;;;;8.90;3.70;;;24.90;37.10;;;;;;6159263;28;80453;-65
2023/06/01 13:50:04;;;;;;;9.02;3.42;;;25.00;38.30;;;;;;6145365;28;81550;-64
2023/06/01 13:53:05;;;;;;;8.63;3.40;;;25.00;38.40;;;;;;6150587;28;80219;-63
2023/06/01 13:56:05;;;;;;;14.50;3.50;;;24.90;37.90;;;;;;6152364;28;80338;-62
2023/06/01 13:59:06;;;;;;;5.90;2.90;;;24.80;37.60;;;;;;6150080;28;82213;-64
2023/06/01 14:02:08;;;;;;;8.80;2.72;;;24.80;37.50;;;;;;6125800;28;85382;-69
2023/06/01 14:05:10;;;;;;;5.30;2.67;;;24.80;37.90;;;;;;6145701;28;81507;-64
2023/06/01 14:08:11;;;;;;;11.27;4.07;;;24.80;38.10;;;;;;6142265;28;83305;-65
2023/06/01 14:11:11;;;;;;;9.68;3.20;;;24.90;36.90;;;;;;6146945;28;80634;-64
2023/06/01 14:14:12;;;;;;;7.03;2.42;;;25.00;35.60;;;;;;6148475;28;80262;-60
2023/06/01 14:17:12;;;;;;;4.78;2.70;;;25.00;35.20;;;;;;6132584;28;80561;-63
2023/06/01 14:20:13;;;;;;;6.68;2.67;;;25.10;35.60;;;;;;6143757;28;82524;-53
2023/06/01 14:23:13;;;;;;;4.47;2.50;;;25.10;34.60;;;;;;6142323;28;81554;-50
2023/06/01 14:26:14;;;;;;;7.90;3.05;;;25.20;34.70;;;;;;6148279;28;82227;-59
2023/06/01 14:29:15;;;;;;;8.05;2.95;;;25.20;36.00;;;;;;6140872;28;80954;-49
2023/06/01 14:32:15;;;;;;;9.25;2.67;;;25.20;36.10;;;;;;6146612;28;81758;-57
2023/06/01 14:35:17;;;;;;;9.93;2.85;;;25.10;36.30;;;;;;6148017;28;81935;-58
2023/06/01 14:38:18;;;;;;;8.55;2.72;;;25.10;35.90;;;;;;6144821;28;84910;-60
2023/06/01 14:41:19;;;;;;;11.18;3.72;;;25.00;36.30;;;;;;6148517;28;80925;-60
2023/06/01 14:44:20;;;;;;;5.47;2.78;;;25.00;36.40;;;;;;6143517;28;80552;-60
2023/06/01 14:47:20;;;;;;;5.90;2.63;;;24.90;36.30;;;;;;6163493;28;80406;-61
2023/06/01 14:50:21;;;;;;;9.18;2.50;;;24.90;36.50;;;;;;6151615;28;80452;-59
2023/06/01 14:53:21;;;;;;;8.02;2.75;;;24.90;36.70;;;;;;6150855;28;80558;-60
2023/06/01 14:56:22;;;;;;;7.05;3.17;;;24.90;37.10;;;;;;6151766;28;80635;-60
2023/06/01 14:59:23;;;;;;;5.00;2.33;;;24.80;37.50;;;;;;6151580;28;84357;-60
2023/06/01 15:02:24;;;;;;;5.97;2.95;;;24.80;37.60;;;;;;6150727;28;80649;-60
2023/06/01 15:05:25;;;;;;;4.28;2.60;;;24.70;37.90;;;;;;6151754;28;80402;-60
2023/06/01 15:08:28;;;;;;;6.57;2.60;;;24.70;38.00;;;;;;6154049;28;80491;-60
2023/06/01 15:11:29;;;;;;;10.13;2.92;;;24.80;38.00;;;;;;6154435;28;80616;-60
2023/06/01 15:14:29;;;;;;;7.22;2.30;;;24.70;38.30;;;;;;6154288;28;81288;-59
2023/06/01 15:17:30;;;;;;;3.50;2.20;;;24.70;39.30;;;;;;6154780;28;81340;-64
2023/06/01 15:20:31;;;;;;;3.70;2.38;;;24.70;39.10;;;;;;6153306;28;80824;-63
2023/06/01 15:23:32;;;;;;;4.75;2.60;;;24.70;39.20;;;;;;6154457;28;82122;-62
2023/06/01 15:26:32;;;;;;;5.63;2.50;;;24.60;39.40;;;;;;6153779;28;80686;-63
2023/06/01 15:29:33;;;;;;;4.68;3.05;;;24.60;39.60;;;;;;6154446;28;82635;-63
2023/06/01 15:32:33;;;;;;;6.55;2.58;;;24.60;39.80;;;;;;6152480;28;81096;-65
2023/06/01 15:35:34;;;;;;;4.10;2.10;;;24.60;40.00;;;;;;6155246;28;80504;-68
2023/06/01 15:38:35;;;;;;;5.80;2.30;;;24.60;40.10;;;;;;6153384;28;80684;-68
2023/06/01 15:41:36;;;;;;;4.18;2.35;;;24.60;40.10;;;;;;6153478;28;80581;-67